sensor_id;sensor_type;location;lat;lon;timestamp;pressure;altitude;pressure_sealevel;temperature;humidity
40460;BME280;26164;51.138;16.952;2024-02-26T00:00:19;74751.69;;;-146.39;36.30
40460;BME280;26164;51.138;16.952;2024-02-26T00:03:08;74759.84;;;-146.39;36.61
40460;BME280;26164;51.138;16.952;2024-02-26T00:05:40;74727.19;;;-146.39;36.35
40460;BME280;26164;51.138;16.952;2024-02-26T00:08:22;74710.88;;;-146.39;35.86
40460;BME280;26164;51.138;16.952;2024-02-26T00:11:11;74678.22;;;-146.39;35.75
40460;BME280;26164;51.138;16.952;2024-02-26T00:14:02;74757.81;;;-146.39;36.26
40460;BME280;26164;51.138;16.952;2024-02-26T00:16:40;74735.34;;;-146.39;36.46
40460;BME280;26164;51.138;16.952;2024-02-26T00:19:07;74755.75;;;-146.39;36.59
40460;BME280;26164;51.138;16.952;2024-02-26T00:21:40;74751.69;;;-146.39;36.59
40460;BME280;26164;51.138;16.952;2024-02-26T00:24:07;74812.91;;;-146.39;37.06
40460;BME280;26164;51.138;16.952;2024-02-26T00:26:48;74792.50;;;-146.39;36.85
40460;BME280;26164;51.138;16.952;2024-02-26T00:29:27;74784.31;;;-146.39;36.95
40460;BME280;26164;51.138;16.952;2024-02-26T00:31:56;74731.28;;;-146.39;36.27
40460;BME280;26164;51.138;16.952;2024-02-26T00:39:04;74706.78;;;-146.39;36.16
40460;BME280;26164;51.138;16.952;2024-02-26T00:59:40;74710.88;;;-146.39;35.94
40460;BME280;26164;51.138;16.952;2024-02-26T01:02:11;74768.00;;;-146.39;36.73
40460;BME280;26164;51.138;16.952;2024-02-26T01:05:09;74878.19;;;-146.39;38.08
40460;BME280;26164;51.138;16.952;2024-02-26T01:08:19;75074.09;;;-146.39;41.36
40460;BME280;26164;51.138;16.952;2024-02-26T01:11:59;75110.84;;;-146.39;42.66
40460;BME280;26164;51.138;16.952;2024-02-26T01:15:28;75000.63;;;-146.39;40.72
40460;BME280;26164;51.138;16.952;2024-02-26T01:19:04;74976.16;;;-146.39;39.62
40460;BME280;26164;51.138;16.952;2024-02-26T01:21:41;74908.81;;;-146.39;39.21
40460;BME280;26164;51.138;16.952;2024-02-26T01:24:38;74996.56;;;-146.39;40.00
40460;BME280;26164;51.138;16.952;2024-02-26T01:27:21;74998.59;;;-146.39;40.20
40460;BME280;26164;51.138;16.952;2024-02-26T01:30:16;74972.06;;;-146.39;39.93
40460;BME280;26164;51.138;16.952;2024-02-26T01:32:51;74943.50;;;-146.39;39.73
40460;BME280;26164;51.138;16.952;2024-02-26T01:35:53;75021.03;;;-146.39;40.08
40460;BME280;26164;51.138;16.952;2024-02-26T01:42:43;74914.94;;;-146.39;39.15
40460;BME280;26164;51.138;16.952;2024-02-26T01:45:23;74947.56;;;-146.39;39.56
40460;BME280;26164;51.138;16.952;2024-02-26T01:47:51;74967.97;;;-146.39;39.79
40460;BME280;26164;51.138;16.952;2024-02-26T01:50:22;75000.63;;;-146.39;40.08
40460;BME280;26164;51.138;16.952;2024-02-26T01:52:51;74992.47;;;-146.39;39.90
40460;BME280;26164;51.138;16.952;2024-02-26T01:55:33;74992.47;;;-146.39;40.03
40460;BME280;26164;51.138;16.952;2024-02-26T01:58:01;74939.41;;;-146.39;39.27
40460;BME280;26164;51.138;16.952;2024-02-26T02:00:28;74927.16;;;-146.39;38.95
40460;BME280;26164;51.138;16.952;2024-02-26T02:03:09;74890.44;;;-146.39;38.63
40460;BME280;26164;51.138;16.952;2024-02-26T02:05:36;74902.69;;;-146.39;38.90
40460;BME280;26164;51.138;16.952;2024-02-26T02:08:08;74906.75;;;-146.39;38.68
40460;BME280;26164;51.138;16.952;2024-02-26T02:10:38;74910.84;;;-146.39;38.64
40460;BME280;26164;51.138;16.952;2024-02-26T02:13:04;74845.53;;;-146.39;37.74
40460;BME280;26164;51.138;16.952;2024-02-26T02:15:31;74863.91;;;-146.39;37.88
40460;BME280;26164;51.138;16.952;2024-02-26T02:17:57;74916.97;;;-146.39;38.10
40460;BME280;26164;51.138;16.952;2024-02-26T02:20:38;74939.41;;;-146.39;38.98
40460;BME280;26164;51.138;16.952;2024-02-26T02:23:05;75033.28;;;-146.39;40.09
40460;BME280;26164;51.138;16.952;2024-02-26T02:25:32;75094.50;;;-146.39;40.87
40460;BME280;26164;51.138;16.952;2024-02-26T02:28:01;75159.81;;;-146.39;42.66
40460;BME280;26164;51.138;16.952;2024-02-26T02:30:29;74967.97;;;-146.39;40.03
40460;BME280;26164;51.138;16.952;2024-02-26T02:32:58;75039.41;;;-146.39;40.35
40460;BME280;26164;51.138;16.952;2024-02-26T02:35:24;75088.38;;;-146.39;41.53
40460;BME280;26164;51.138;16.952;2024-02-26T02:37:52;75102.66;;;-146.39;40.74
40460;BME280;26164;51.138;16.952;2024-02-26T02:40:20;75047.56;;;-146.39;40.45
40460;BME280;26164;51.138;16.952;2024-02-26T02:42:46;75076.13;;;-146.39;41.10
40460;BME280;26164;51.138;16.952;2024-02-26T02:45:13;75082.25;;;-146.39;41.16
40460;BME280;26164;51.138;16.952;2024-02-26T02:47:48;75082.25;;;-146.39;41.59
40460;BME280;26164;51.138;16.952;2024-02-26T02:50:17;75125.13;;;-146.39;42.00
40460;BME280;26164;51.138;16.952;2024-02-26T02:52:44;75090.44;;;-146.39;41.80
40460;BME280;26164;51.138;16.952;2024-02-26T02:55:10;75053.69;;;-146.39;41.09
40460;BME280;26164;51.138;16.952;2024-02-26T02:57:38;75059.81;;;-146.39;40.94
40460;BME280;26164;51.138;16.952;2024-02-26T03:00:11;75033.28;;;-146.39;40.65
40460;BME280;26164;51.138;16.952;2024-02-26T03:02:40;75155.72;;;-146.39;42.43
40460;BME280;26164;51.138;16.952;2024-02-26T03:05:09;75004.72;;;-146.39;40.67
40460;BME280;26164;51.138;16.952;2024-02-26T03:07:50;74959.81;;;-146.39;39.50
40460;BME280;26164;51.138;16.952;2024-02-26T03:10:21;74967.97;;;-146.39;39.28
40460;BME280;26164;51.138;16.952;2024-02-26T03:12:47;74943.50;;;-146.39;39.17
40460;BME280;26164;51.138;16.952;2024-02-26T03:15:15;74957.78;;;-146.39;39.28
40460;BME280;26164;51.138;16.952;2024-02-26T03:17:43;74951.66;;;-146.39;39.24
40460;BME280;26164;51.138;16.952;2024-02-26T03:20:13;74908.81;;;-146.39;38.66
40460;BME280;26164;51.138;16.952;2024-02-26T03:22:54;74931.25;;;-146.39;39.20
40460;BME280;26164;51.138;16.952;2024-02-26T03:25:26;75000.63;;;-146.39;40.00
40460;BME280;26164;51.138;16.952;2024-02-26T03:27:57;75025.13;;;-146.39;39.71
40460;BME280;26164;51.138;16.952;2024-02-26T03:30:28;75010.84;;;-146.39;39.68
40460;BME280;26164;51.138;16.952;2024-02-26T03:32:59;74978.19;;;-146.39;39.56
40460;BME280;26164;51.138;16.952;2024-02-26T03:35:35;75029.22;;;-146.39;40.29
40460;BME280;26164;51.138;16.952;2024-02-26T03:38:14;74935.34;;;-146.39;38.92
40460;BME280;26164;51.138;16.952;2024-02-26T03:40:47;74963.91;;;-146.39;39.33
40460;BME280;26164;51.138;16.952;2024-02-26T03:43:13;74919.00;;;-146.39;38.73
40460;BME280;26164;51.138;16.952;2024-02-26T03:45:40;74976.16;;;-146.39;39.18
40460;BME280;26164;51.138;16.952;2024-02-26T03:48:06;75012.88;;;-146.39;39.60
40460;BME280;26164;51.138;16.952;2024-02-26T03:50:33;75086.34;;;-146.39;41.16
40460;BME280;26164;51.138;16.952;2024-02-26T03:53:00;75070.03;;;-146.39;41.01
40460;BME280;26164;51.138;16.952;2024-02-26T03:55:27;75078.19;;;-146.39;41.39
40460;BME280;26164;51.138;16.952;2024-02-26T03:57:53;75090.44;;;-146.39;41.30
40460;BME280;26164;51.138;16.952;2024-02-26T04:00:20;74984.31;;;-146.39;40.47
40460;BME280;26164;51.138;16.952;2024-02-26T04:02:47;74935.34;;;-146.39;39.37
40460;BME280;26164;51.138;16.952;2024-02-26T04:05:14;74978.19;;;-146.39;39.88
40460;BME280;26164;51.138;16.952;2024-02-26T04:07:40;74959.81;;;-146.39;39.45
40460;BME280;26164;51.138;16.952;2024-02-26T04:10:22;74927.16;;;-146.39;38.88
40460;BME280;26164;51.138;16.952;2024-02-26T04:13:12;74904.72;;;-146.39;38.94
40460;BME280;26164;51.138;16.952;2024-02-26T04:15:44;75031.25;;;-146.39;40.30
40460;BME280;26164;51.138;16.952;2024-02-26T04:18:10;75127.16;;;-146.39;42.33
40460;BME280;26164;51.138;16.952;2024-02-26T04:20:38;75053.69;;;-146.39;41.32
40460;BME280;26164;51.138;16.952;2024-02-26T04:23:08;75078.19;;;-146.39;41.67
40460;BME280;26164;51.138;16.952;2024-02-26T04:25:34;75078.19;;;-146.39;41.88
40460;BME280;26164;51.138;16.952;2024-02-26T04:28:04;75021.03;;;-146.39;41.13
40460;BME280;26164;51.138;16.952;2024-02-26T04:30:37;75082.25;;;-146.39;40.88
40460;BME280;26164;51.138;16.952;2024-02-26T04:33:04;75037.38;;;-146.39;40.77
40460;BME280;26164;51.138;16.952;2024-02-26T04:35:31;74943.50;;;-146.39;39.71
40460;BME280;26164;51.138;16.952;2024-02-26T04:37:58;74984.31;;;-146.39;39.99
40460;BME280;26164;51.138;16.952;2024-02-26T04:40:39;74910.84;;;-146.39;38.50
40460;BME280;26164;51.138;16.952;2024-02-26T04:43:06;75000.63;;;-146.39;39.57
40460;BME280;26164;51.138;16.952;2024-02-26T04:45:32;74951.66;;;-146.39;39.02
40460;BME280;26164;51.138;16.952;2024-02-26T04:48:13;74980.22;;;-146.39;39.59
40460;BME280;26164;51.138;16.952;2024-02-26T04:50:39;75078.19;;;-146.39;41.04
40460;BME280;26164;51.138;16.952;2024-02-26T04:53:07;74984.31;;;-146.39;40.26
40460;BME280;26164;51.138;16.952;2024-02-26T04:55:35;74890.44;;;-146.39;38.50
40460;BME280;26164;51.138;16.952;2024-02-26T04:58:03;74982.28;;;-146.39;39.74
40460;BME280;26164;51.138;16.952;2024-02-26T05:00:44;74886.34;;;-146.39;38.38
40460;BME280;26164;51.138;16.952;2024-02-26T05:03:17;74882.28;;;-146.39;38.34
40460;BME280;26164;51.138;16.952;2024-02-26T05:05:44;74914.94;;;-146.39;38.86
40460;BME280;26164;51.138;16.952;2024-02-26T05:08:30;74890.44;;;-146.39;38.40
40460;BME280;26164;51.138;16.952;2024-02-26T05:11:05;74972.06;;;-146.39;38.93
40460;BME280;26164;51.138;16.952;2024-02-26T05:13:51;74880.22;;;-146.39;38.32
40460;BME280;26164;51.138;16.952;2024-02-26T05:17:00;75055.72;;;-146.39;41.00
40460;BME280;26164;51.138;16.952;2024-02-26T05:20:19;75061.84;;;-146.39;41.64
40460;BME280;26164;51.138;16.952;2024-02-26T05:23:02;75041.44;;;-146.39;40.79
40460;BME280;26164;51.138;16.952;2024-02-26T05:25:53;75074.09;;;-146.39;41.39
40460;BME280;26164;51.138;16.952;2024-02-26T05:43:12;75106.75;;;-146.39;41.85
40460;BME280;26164;51.138;16.952;2024-02-26T05:45:55;74984.31;;;-146.39;40.46
40460;BME280;26164;51.138;16.952;2024-02-26T05:48:21;75016.97;;;-146.39;40.36
40460;BME280;26164;51.138;16.952;2024-02-26T05:50:48;74951.66;;;-146.39;39.76
40460;BME280;26164;51.138;16.952;2024-02-26T05:57:09;74945.53;;;-146.39;39.28
40460;BME280;26164;51.138;16.952;2024-02-26T05:59:39;74935.34;;;-146.39;39.10
40460;BME280;26164;51.138;16.952;2024-02-26T06:02:08;74976.16;;;-146.39;39.45
40460;BME280;26164;51.138;16.952;2024-02-26T06:04:35;74939.41;;;-146.39;38.93
40460;BME280;26164;51.138;16.952;2024-02-26T06:07:01;74961.88;;;-146.39;39.04
40460;BME280;26164;51.138;16.952;2024-02-26T06:09:31;75051.66;;;-146.39;40.20
40460;BME280;26164;51.138;16.952;2024-02-26T06:11:59;74939.41;;;-146.39;39.48
40460;BME280;26164;51.138;16.952;2024-02-26T06:14:26;74914.94;;;-146.39;38.74
40460;BME280;26164;51.138;16.952;2024-02-26T06:16:56;74931.25;;;-146.39;39.29
40460;BME280;26164;51.138;16.952;2024-02-26T06:19:40;74865.94;;;-146.39;38.92
40460;BME280;26164;51.138;16.952;2024-02-26T06:22:27;74833.31;;;-146.39;38.28
40460;BME280;26164;51.138;16.952;2024-02-26T06:31:09;74853.72;;;-146.39;39.21
40460;BME280;26164;51.138;16.952;2024-02-26T06:33:36;74800.66;;;-146.39;38.46
40460;BME280;26164;51.138;16.952;2024-02-26T06:36:07;74833.31;;;-146.39;39.27
40460;BME280;26164;51.138;16.952;2024-02-26T06:38:56;74719.03;;;-146.39;38.49
40460;BME280;26164;51.138;16.952;2024-02-26T06:41:48;74796.56;;;-146.39;38.88
40460;BME280;26164;51.138;16.952;2024-02-26T18:22:24;73817.19;;;-146.39;30.27
